createdAt,value
2022-09-01T00:00:36.856Z,17.48
2022-09-01T00:04:00.931Z,17.79
2022-09-01T00:07:23.861Z,17.32
2022-09-01T00:10:47.881Z,17.41
2022-09-01T00:14:29.907Z,17.53
2022-09-01T00:17:55.877Z,17.48
2022-09-01T00:21:19.891Z,17.60
2022-09-01T00:24:44.907Z,17.36
2022-09-01T00:28:06.305Z,17.69
2022-09-01T00:31:23.924Z,18.42
2022-09-01T00:34:47.862Z,18.31
2022-09-01T00:38:12.867Z,18.68
2022-09-01T00:41:40.820Z,18.68
2022-09-01T00:45:04.906Z,18.64
2022-09-01T00:48:29.834Z,18.67
2022-09-01T00:51:55.865Z,18.64
2022-09-01T00:55:40.868Z,18.85
2022-09-01T00:59:04.913Z,19.39
2022-09-01T01:02:28.943Z,19.96
2022-09-01T01:05:57.906Z,20.32
2022-09-01T01:09:15.862Z,19.66
2022-09-01T01:12:40.885Z,19.66
2022-09-01T01:16:05.865Z,19.92
2022-09-01T01:20:15.851Z,19.34
2022-09-01T01:23:56.876Z,18.69
2022-09-01T01:27:14.924Z,18.78
2022-09-01T01:30:35.921Z,19.39
2022-09-01T01:34:13.853Z,19.23
2022-09-01T01:37:37.878Z,18.95
2022-09-01T01:41:03.841Z,18.94
2022-09-01T01:44:28.940Z,18.76
2022-09-01T01:47:55.910Z,18.31
2022-09-01T01:51:21.901Z,18.28
2022-09-01T01:54:45.888Z,18.20
2022-09-01T01:58:12.921Z,18.30
2022-09-01T02:01:39.905Z,17.89
2022-09-01T02:05:03.943Z,17.92
2022-09-01T02:08:30.876Z,17.79
2022-09-01T02:11:54.903Z,18.02
2022-09-01T02:15:20.932Z,17.58
2022-09-01T02:18:50.898Z,17.57
2022-09-01T02:22:13.920Z,18.15
2022-09-01T02:25:45.870Z,17.70
2022-09-01T02:29:28.960Z,18.00
2022-09-01T02:32:52.872Z,17.33
2022-09-01T02:36:20.923Z,17.63
2022-09-01T02:39:46.912Z,17.62
2022-09-01T02:43:13.957Z,17.51
2022-09-01T02:46:38.880Z,17.12
2022-09-01T02:50:06.909Z,17.11
2022-09-01T02:53:30.868Z,16.89
2022-09-01T02:56:55.956Z,17.18
2022-09-01T03:00:30.949Z,16.91
2022-09-01T03:03:54.922Z,16.99
2022-09-01T03:07:21.924Z,16.98
2022-09-01T03:10:50.913Z,16.75
2022-09-01T03:14:14.944Z,16.87
2022-09-01T03:17:39.970Z,16.70
2022-09-01T03:21:05.966Z,16.56
2022-09-01T03:24:32.890Z,16.72
2022-09-01T03:27:49.941Z,16.62
2022-09-01T03:31:14.030Z,16.43
2022-09-01T03:34:41.906Z,16.55
2022-09-01T03:38:06.981Z,16.88
2022-09-01T03:41:32.948Z,16.51
2022-09-01T03:44:52.931Z,16.80
2022-09-01T03:48:17.030Z,17.24
2022-09-01T03:51:41.933Z,17.65
2022-09-01T03:55:06.958Z,18.33
2022-09-01T03:58:32.967Z,17.88
2022-09-01T04:01:56.976Z,17.34
2022-09-01T04:05:42.005Z,17.42
2022-09-01T04:09:10.948Z,17.76
2022-09-01T04:12:33.951Z,17.05
2022-09-01T04:15:57.953Z,17.04
2022-09-01T04:19:27.975Z,16.95
2022-09-01T04:22:54.999Z,16.88
2022-09-01T04:26:22.933Z,16.93
2022-09-01T04:29:47.024Z,16.75
2022-09-01T04:33:07.519Z,16.77
2022-09-01T04:36:34.959Z,16.63
2022-09-01T04:40:03.968Z,16.63
2022-09-01T04:43:28.091Z,16.57
2022-09-01T04:46:55.982Z,16.52
2022-09-01T04:50:21.940Z,16.26
2022-09-01T04:54:04.936Z,16.21
2022-09-01T04:57:29.946Z,16.15
2022-09-01T05:00:56.133Z,16.55
2022-09-01T05:04:21.987Z,16.49
2022-09-01T05:07:45.984Z,16.31
2022-09-01T05:11:09.993Z,16.18
2022-09-01T05:14:36.991Z,16.21
2022-09-01T05:18:05.985Z,16.15
2022-09-01T05:21:33.990Z,16.23
2022-09-01T05:24:58.983Z,15.86
2022-09-01T05:28:22.982Z,15.85
2022-09-01T05:31:46.081Z,15.77
2022-09-01T05:35:04.642Z,15.80
2022-09-01T05:38:24.027Z,16.70
2022-09-01T05:41:48.999Z,16.39
2022-09-01T05:45:06.983Z,15.72
2022-09-01T05:48:31.994Z,15.63
2022-09-01T05:52:00.996Z,15.37
2022-09-01T05:55:25.957Z,15.32
2022-09-01T06:02:42.104Z,15.15
2022-09-01T06:06:10.993Z,15.00
2022-09-01T06:09:36.037Z,14.87
2022-09-01T06:13:00.996Z,15.25
2022-09-01T06:16:28.040Z,15.24
2022-09-01T06:19:55.039Z,15.37
2022-09-01T06:23:23.054Z,15.46
2022-09-01T06:26:50.008Z,15.37
2022-09-01T06:30:24.411Z,15.17
2022-09-01T06:33:54.966Z,15.06
2022-09-01T06:37:19.051Z,15.28
2022-09-01T06:40:51.045Z,15.19
2022-09-01T06:44:14.341Z,15.26
2022-09-01T06:47:45.003Z,15.10
2022-09-01T06:51:17.141Z,15.15
2022-09-01T06:54:49.047Z,15.25
2022-09-01T06:58:15.039Z,15.01
2022-09-01T07:01:42.191Z,15.02
2022-09-01T07:05:08.012Z,15.00
2022-09-01T07:08:32.106Z,14.99
2022-09-01T07:12:24.346Z,14.81
2022-09-01T07:19:50.748Z,14.44
2022-09-01T07:23:16.051Z,14.22
2022-09-01T07:26:47.506Z,14.28
2022-09-01T07:30:13.094Z,14.15
2022-09-01T07:33:44.252Z,14.18
2022-09-01T07:38:46.914Z,14.21
2022-09-01T07:44:39.037Z,14.03
2022-09-01T07:52:11.994Z,13.94
2022-09-01T07:55:40.075Z,13.94
2022-09-01T07:59:07.024Z,13.89
2022-09-01T08:02:41.110Z,13.87
2022-09-01T08:06:09.009Z,13.79
2022-09-01T08:09:37.501Z,13.80
2022-09-01T08:13:05.054Z,13.67
2022-09-01T08:16:39.406Z,13.65
2022-09-01T08:20:04.069Z,13.55
2022-09-01T08:23:56.044Z,13.53
2022-09-01T08:27:22.034Z,13.47
2022-09-01T08:30:52.416Z,13.49
2022-09-01T08:34:17.121Z,13.41
2022-09-01T08:37:42.066Z,13.42
2022-09-01T08:41:11.043Z,13.34
2022-09-01T08:44:54.112Z,13.36
2022-09-01T08:49:18.518Z,13.48
2022-09-01T08:52:18.095Z,13.32
2022-09-01T08:55:59.039Z,13.49
2022-09-01T08:59:24.070Z,13.30
2022-09-01T09:03:40.498Z,13.29
2022-09-01T09:07:19.090Z,13.26
2022-09-01T09:10:52.026Z,13.25
2022-09-01T09:14:33.179Z,13.24
2022-09-01T09:18:20.190Z,13.21
2022-09-01T09:21:58.136Z,13.22
2022-09-01T09:25:32.110Z,13.23
2022-09-01T09:28:58.071Z,13.25
2022-09-01T09:32:35.163Z,13.36
2022-09-01T09:36:05.099Z,13.33
2022-09-01T09:39:32.096Z,13.26
2022-09-01T09:43:17.269Z,13.24
2022-09-01T09:46:47.072Z,13.20
2022-09-01T09:50:26.089Z,13.04
2022-09-01T09:53:51.155Z,13.11
2022-09-01T09:57:33.214Z,13.22
2022-09-01T10:01:17.696Z,13.41
2022-09-01T10:04:55.707Z,13.31
2022-09-01T10:08:24.076Z,13.16
2022-09-01T10:11:57.256Z,13.22
2022-09-01T10:15:24.081Z,13.24
2022-09-01T10:19:00.153Z,13.23
2022-09-01T10:22:24.097Z,13.16
2022-09-01T10:25:49.123Z,13.22
2022-09-01T10:29:22.057Z,13.21
2022-09-01T10:32:55.992Z,13.18
2022-09-01T10:36:25.067Z,13.15
2022-09-01T10:39:51.685Z,13.23
2022-09-01T10:43:51.094Z,13.17
2022-09-01T10:47:42.172Z,13.16
2022-09-01T10:51:35.363Z,13.12
2022-09-01T10:55:05.122Z,13.10
2022-09-01T11:02:35.888Z,12.96
2022-09-01T11:06:13.650Z,13.08
2022-09-01T11:09:48.132Z,13.26
2022-09-01T11:13:24.110Z,13.13
2022-09-01T11:16:55.133Z,12.94
2022-09-01T11:20:27.130Z,12.90
2022-09-01T11:23:52.747Z,13.01
2022-09-01T11:27:18.128Z,12.98
2022-09-01T11:31:06.173Z,12.94
2022-09-01T11:34:37.245Z,12.87
2022-09-01T11:38:05.119Z,12.89
2022-09-01T11:41:36.743Z,12.83
2022-09-01T11:45:08.193Z,12.94
2022-09-01T11:48:35.243Z,12.99
2022-09-01T11:52:03.128Z,13.06
2022-09-01T11:55:26.151Z,12.92
2022-09-01T11:58:51.104Z,12.96
2022-09-01T12:02:15.449Z,12.62
2022-09-01T12:05:49.218Z,12.55
2022-09-01T12:09:18.181Z,12.62
2022-09-01T12:12:47.119Z,12.48
2022-09-01T12:16:22.158Z,12.56
2022-09-01T12:19:50.173Z,12.64
2022-09-01T12:23:18.188Z,12.52
2022-09-01T12:26:46.182Z,12.39
2022-09-01T12:30:11.173Z,12.33
2022-09-01T12:33:35.317Z,12.33
2022-09-01T12:36:59.217Z,12.39
2022-09-01T12:40:39.234Z,12.12
2022-09-01T12:44:03.227Z,12.30
2022-09-01T12:47:32.314Z,12.28
2022-09-01T12:51:01.115Z,12.22
2022-09-01T12:54:24.171Z,12.16
2022-09-01T12:57:56.131Z,12.13
2022-09-01T13:01:26.307Z,12.15
2022-09-01T13:04:50.157Z,12.19
2022-09-01T13:08:22.154Z,12.19
2022-09-01T13:15:31.139Z,12.23
2022-09-01T13:19:11.663Z,12.04
2022-09-01T13:22:36.142Z,12.14
2022-09-01T13:26:00.191Z,12.20
2022-09-01T13:29:25.214Z,12.10
2022-09-01T13:36:52.149Z,12.18
2022-09-01T13:40:23.243Z,12.07
2022-09-01T13:43:41.242Z,12.20
2022-09-01T13:46:59.698Z,12.17
2022-09-01T13:51:12.928Z,12.10
2022-09-01T13:54:12.167Z,11.98
2022-09-01T13:57:36.866Z,12.06
2022-09-01T14:01:02.267Z,11.95
2022-09-01T14:04:28.239Z,12.02
2022-09-01T14:07:52.211Z,11.80
2022-09-01T14:11:17.199Z,12.05
2022-09-01T14:18:25.210Z,11.99
2022-09-01T14:21:49.213Z,12.00
2022-09-01T14:25:14.211Z,11.83
2022-09-01T14:28:39.190Z,11.72
2022-09-01T14:32:05.228Z,11.76
2022-09-01T14:35:33.215Z,11.99
2022-09-01T14:38:58.386Z,11.99
2022-09-01T14:42:23.229Z,11.95
2022-09-01T14:45:47.251Z,11.75
2022-09-01T14:49:12.190Z,11.67
2022-09-01T14:52:35.325Z,11.66
2022-09-01T14:56:00.206Z,11.69
2022-09-01T14:59:27.221Z,11.70
2022-09-01T15:02:51.190Z,11.91
2022-09-01T15:06:15.235Z,11.77
2022-09-01T15:09:40.230Z,11.92
2022-09-01T15:13:04.245Z,11.79
2022-09-01T15:16:36.186Z,11.85
2022-09-01T15:20:00.332Z,11.84
2022-09-01T15:23:25.203Z,11.92
2022-09-01T15:26:52.239Z,11.42
2022-09-01T15:30:22.281Z,11.42
2022-09-01T15:33:47.278Z,11.54
2022-09-01T15:37:11.224Z,11.65
2022-09-01T15:40:35.283Z,11.65
2022-09-01T15:43:59.228Z,11.66
2022-09-01T15:47:24.267Z,11.69
2022-09-01T15:50:48.205Z,11.57
2022-09-01T15:54:18.254Z,11.59
2022-09-01T15:57:41.237Z,11.41
2022-09-01T16:01:06.302Z,11.41
2022-09-01T16:04:32.262Z,11.53
2022-09-01T16:11:25.249Z,11.50
2022-09-01T16:14:50.262Z,11.24
2022-09-01T16:19:05.225Z,11.22
2022-09-01T16:22:46.282Z,11.12
2022-09-01T16:26:10.246Z,11.25
2022-09-01T16:29:59.258Z,11.08
2022-09-01T16:33:28.339Z,11.15
2022-09-01T16:36:54.198Z,11.18
2022-09-01T16:40:31.279Z,11.21
2022-09-01T16:44:21.251Z,11.20
2022-09-01T16:48:27.248Z,11.13
2022-09-01T16:52:00.279Z,11.19
2022-09-01T16:55:36.256Z,11.18
2022-09-01T16:59:24.284Z,11.23
2022-09-01T17:03:00.256Z,11.28
2022-09-01T17:06:32.256Z,11.29
2022-09-01T17:10:06.235Z,11.30
2022-09-01T17:13:46.427Z,11.22
2022-09-01T17:17:25.249Z,11.30
2022-09-01T17:20:57.862Z,11.28
2022-09-01T17:24:23.267Z,11.29
2022-09-01T17:27:57.386Z,11.32
2022-09-01T17:31:30.320Z,11.30
2022-09-01T17:35:24.254Z,11.22
2022-09-01T17:39:15.286Z,11.23
2022-09-01T17:42:48.242Z,11.18
2022-09-01T17:46:42.345Z,11.26
2022-09-01T17:50:56.887Z,11.23
2022-09-01T17:54:45.289Z,11.26
2022-09-01T17:58:18.227Z,11.27
2022-09-01T18:01:55.424Z,11.26
2022-09-01T18:05:27.317Z,11.33
2022-09-01T18:09:05.295Z,11.23
2022-09-01T18:12:33.263Z,11.22
2022-09-01T18:16:06.306Z,10.97
2022-09-01T18:19:38.266Z,10.90
2022-09-01T18:23:23.282Z,11.03
2022-09-01T18:26:49.256Z,11.00
2022-09-01T18:30:13.264Z,11.09
2022-09-01T18:34:12.260Z,11.02
2022-09-01T18:37:51.296Z,11.00
2022-09-01T18:42:00.297Z,11.02
2022-09-01T18:46:05.330Z,11.02
2022-09-01T18:49:45.288Z,11.10
2022-09-01T18:53:12.303Z,11.12
2022-09-01T18:56:57.254Z,11.08
2022-09-01T19:00:30.748Z,11.04
2022-09-01T19:04:10.056Z,11.00
2022-09-01T19:07:38.324Z,11.04
2022-09-01T19:11:24.496Z,11.03
2022-09-01T19:15:00.323Z,11.03
2022-09-01T19:19:02.341Z,11.16
2022-09-01T19:22:32.279Z,11.18
2022-09-01T19:26:05.300Z,11.22
2022-09-01T19:29:40.302Z,11.19
2022-09-01T19:33:07.269Z,11.10
2022-09-01T19:37:01.319Z,11.29
2022-09-01T19:40:26.359Z,11.32
2022-09-01T19:43:51.328Z,11.52
2022-09-01T19:47:56.298Z,11.65
2022-09-01T19:51:45.303Z,11.65
2022-09-01T19:55:12.842Z,11.65
2022-09-01T19:58:44.330Z,11.64
2022-09-01T20:02:17.345Z,11.62
2022-09-01T20:05:53.315Z,11.95
2022-09-01T20:09:34.698Z,12.12
2022-09-01T20:13:40.301Z,12.21
2022-09-01T20:17:10.291Z,12.44
2022-09-01T20:20:41.381Z,12.55
2022-09-01T20:24:23.340Z,12.35
2022-09-01T20:27:58.353Z,12.62
2022-09-01T20:31:58.292Z,12.62
2022-09-01T20:35:31.735Z,13.19
2022-09-01T20:39:42.298Z,13.35
2022-09-01T20:43:31.356Z,13.42
2022-09-01T20:46:55.328Z,13.30
2022-09-01T20:50:26.347Z,13.56
2022-09-01T20:54:08.070Z,13.62
2022-09-01T20:58:00.370Z,13.59
2022-09-01T21:01:33.354Z,13.99
2022-09-01T21:05:04.384Z,14.60
2022-09-01T21:08:53.467Z,15.17
2022-09-01T21:12:24.308Z,15.20
2022-09-01T21:16:00.336Z,14.67
2022-09-01T21:19:54.362Z,15.12
2022-09-01T21:23:18.384Z,15.16
2022-09-01T21:26:42.334Z,15.38
2022-09-01T21:30:17.335Z,15.21
2022-09-01T21:33:43.374Z,15.47
2022-09-01T21:37:07.355Z,15.65
2022-09-01T21:40:32.411Z,15.68
2022-09-01T21:43:59.342Z,15.80
2022-09-01T21:47:23.376Z,15.56
2022-09-01T21:50:48.389Z,16.44
2022-09-01T21:54:12.342Z,16.63
2022-09-01T21:57:37.399Z,16.38
2022-09-01T22:01:03.374Z,15.66
2022-09-01T22:04:27.393Z,15.94
2022-09-01T22:07:53.404Z,15.90
2022-09-01T22:11:17.364Z,16.33
2022-09-01T22:14:42.370Z,16.08
2022-09-01T22:18:08.362Z,16.07
2022-09-01T22:21:32.411Z,15.80
2022-09-01T22:24:56.367Z,16.18
2022-09-01T22:28:21.383Z,15.80
2022-09-01T22:31:47.319Z,15.53
2022-09-01T22:35:12.407Z,16.15
2022-09-01T22:38:38.329Z,16.37
2022-09-01T22:42:03.420Z,16.89
2022-09-01T22:45:29.407Z,16.47
2022-09-01T22:48:54.378Z,16.89
2022-09-01T22:52:18.352Z,17.20
2022-09-01T22:55:42.731Z,17.04
2022-09-01T22:59:10.408Z,17.27
2022-09-01T23:02:35.449Z,16.75
2022-09-01T23:05:59.360Z,16.89
2022-09-01T23:09:23.414Z,16.97
2022-09-01T23:12:47.408Z,16.88
2022-09-01T23:16:12.497Z,17.30
2022-09-01T23:19:37.368Z,17.26
2022-09-01T23:23:01.422Z,18.06
2022-09-01T23:26:27.395Z,17.38
2022-09-01T23:29:51.395Z,17.50
2022-09-01T23:33:14.438Z,18.13
2022-09-01T23:36:41.397Z,17.76
2022-09-01T23:40:05.505Z,18.23
2022-09-01T23:43:30.355Z,19.47
2022-09-01T23:46:58.435Z,17.92
2022-09-01T23:50:22.380Z,19.01
2022-09-01T23:53:48.407Z,19.67
2022-09-01T23:57:06.178Z,18.55
